createdAt,value
2022-12-05T00:01:42.289Z,30.98
2022-12-05T00:04:15.111Z,31.50
2022-12-05T00:06:43.526Z,31.00
2022-12-05T00:09:13.448Z,30.60
2022-12-05T00:11:42.985Z,29.60
2022-12-05T00:14:11.575Z,31.17
2022-12-05T00:16:41.896Z,30.30
2022-12-05T00:19:11.737Z,28.95
2022-12-05T00:21:39.598Z,30.55
2022-12-05T00:24:09.072Z,31.20
2022-12-05T00:26:36.740Z,28.60
2022-12-05T00:29:04.870Z,29.25
2022-12-05T00:31:32.451Z,28.23
2022-12-05T00:34:01.732Z,29.30
2022-12-05T00:36:32.350Z,30.63
2022-12-05T00:39:02.070Z,30.25
2022-12-05T00:41:30.379Z,31.08
2022-12-05T00:44:00.357Z,30.67
2022-12-05T00:46:30.390Z,29.23
2022-12-05T00:48:59.345Z,29.95
2022-12-05T00:51:29.994Z,31.90
2022-12-05T00:54:03.004Z,30.35
2022-12-05T00:56:32.112Z,33.15
2022-12-05T00:59:00.969Z,31.67
2022-12-05T01:01:40.360Z,32.70
2022-12-05T01:04:12.069Z,33.00
2022-12-05T01:06:40.437Z,32.67
2022-12-05T01:09:08.885Z,34.67
2022-12-05T01:11:41.289Z,34.00
2022-12-05T01:14:12.125Z,34.00
2022-12-05T01:16:41.348Z,35.35
2022-12-05T01:19:13.012Z,33.38
2022-12-05T01:21:41.285Z,35.22
2022-12-05T01:24:10.350Z,31.35
2022-12-05T01:26:38.166Z,35.65
2022-12-05T01:29:05.687Z,34.10
2022-12-05T01:31:36.349Z,36.30
2022-12-05T01:34:06.576Z,34.03
2022-12-05T01:36:34.556Z,33.22
2022-12-05T01:39:02.260Z,34.75
2022-12-05T01:41:36.298Z,34.10
2022-12-05T01:44:13.035Z,34.65
2022-12-05T01:46:51.780Z,34.88
2022-12-05T01:49:31.843Z,34.97
2022-12-05T01:52:05.621Z,36.38
2022-12-05T01:54:34.843Z,34.22
2022-12-05T01:57:11.705Z,35.22
2022-12-05T01:59:46.500Z,35.63
2022-12-05T02:02:14.210Z,34.33
2022-12-05T02:04:50.348Z,35.17
2022-12-05T02:07:19.246Z,35.35
2022-12-05T02:09:48.715Z,34.50
2022-12-05T02:12:17.875Z,33.50
2022-12-05T02:14:51.444Z,35.67
2022-12-05T02:17:43.785Z,35.10
2022-12-05T02:20:20.524Z,35.70
2022-12-05T02:23:23.271Z,33.58
2022-12-05T02:26:18.142Z,31.92
2022-12-05T02:29:19.524Z,32.97
2022-12-05T02:32:09.481Z,34.08
2022-12-05T02:35:08.989Z,29.88
2022-12-05T02:38:02.362Z,31.02
2022-12-05T02:40:39.355Z,29.67
2022-12-05T02:43:19.420Z,31.88
2022-12-05T02:45:52.091Z,32.13
2022-12-05T02:48:21.057Z,29.50
2022-12-05T02:50:50.572Z,29.92
2022-12-05T02:53:19.973Z,30.02
2022-12-05T02:55:48.128Z,29.88
2022-12-05T03:00:49.278Z,23.88
2022-12-05T03:03:22.630Z,25.35
2022-12-05T03:06:07.675Z,28.35
2022-12-05T03:08:42.985Z,26.90
2022-12-05T03:11:10.964Z,25.08
2022-12-05T03:13:58.058Z,25.50
2022-12-05T03:16:34.026Z,24.95
2022-12-05T03:19:20.077Z,28.33
2022-12-05T03:21:56.476Z,26.50
2022-12-05T03:24:24.481Z,27.30
2022-12-05T03:27:04.636Z,25.30
2022-12-05T03:29:39.384Z,26.67
2022-12-05T03:32:31.486Z,26.02
2022-12-05T03:35:11.527Z,25.17
2022-12-05T03:37:45.705Z,25.63
2022-12-05T03:40:26.689Z,26.02
2022-12-05T03:43:27.411Z,26.15
2022-12-05T03:46:10.041Z,26.33
2022-12-05T03:48:58.884Z,24.92
2022-12-05T03:51:46.684Z,25.58
2022-12-05T03:56:51.197Z,24.88
2022-12-05T03:59:30.851Z,26.85
2022-12-05T04:02:01.582Z,25.67
2022-12-05T04:04:39.846Z,25.45
2022-12-05T04:07:09.481Z,25.80
2022-12-05T04:09:45.785Z,27.23
2022-12-05T04:12:18.901Z,26.02
2022-12-05T04:14:54.977Z,25.50
2022-12-05T04:17:46.974Z,26.13
2022-12-05T04:20:51.205Z,24.83
2022-12-05T04:23:18.910Z,26.55
2022-12-05T04:26:19.265Z,26.67
2022-12-05T04:28:55.834Z,25.38
2022-12-05T04:31:26.882Z,26.58
2022-12-05T04:34:02.674Z,25.80
2022-12-05T04:36:55.851Z,25.85
2022-12-05T04:39:33.231Z,25.27
2022-12-05T04:42:03.736Z,23.20
2022-12-05T04:44:40.229Z,26.15
2022-12-05T04:47:10.551Z,25.42
2022-12-05T04:49:41.121Z,25.05
2022-12-05T04:52:11.733Z,24.80
2022-12-05T04:54:42.696Z,24.88
2022-12-05T04:57:37.120Z,23.50
2022-12-05T05:00:05.770Z,23.42
2022-12-05T05:02:40.625Z,22.15
2022-12-05T05:05:14.118Z,22.70
2022-12-05T05:07:47.299Z,22.92
2022-12-05T05:10:25.589Z,21.73
2022-12-05T05:12:53.328Z,22.08
2022-12-05T05:15:20.761Z,21.95
2022-12-05T05:17:48.238Z,20.23
2022-12-05T05:20:24.459Z,17.92
2022-12-05T05:22:53.130Z,19.95
2022-12-05T05:25:21.126Z,16.88
2022-12-05T05:27:53.657Z,17.13
2022-12-05T05:30:22.890Z,16.95
2022-12-05T05:32:50.340Z,18.70
2022-12-05T05:35:18.040Z,18.55
2022-12-05T05:37:45.575Z,17.13
2022-12-05T05:40:14.033Z,18.85
2022-12-05T05:42:46.890Z,17.77
2022-12-05T05:45:15.575Z,18.75
2022-12-05T05:47:43.987Z,17.98
2022-12-05T05:50:16.292Z,17.15
2022-12-05T05:52:45.473Z,18.42
2022-12-05T05:55:13.129Z,18.35
2022-12-05T05:57:40.598Z,19.52
2022-12-05T06:00:08.796Z,18.30
2022-12-05T06:02:36.621Z,19.13
2022-12-05T06:05:05.530Z,19.08
2022-12-05T06:07:33.087Z,18.45
2022-12-05T06:10:01.166Z,19.42
2022-12-05T06:14:56.497Z,19.77
2022-12-05T06:17:23.924Z,20.25
2022-12-05T06:19:51.480Z,20.20
2022-12-05T06:22:18.920Z,18.55
2022-12-05T06:24:46.389Z,18.55
2022-12-05T06:27:13.966Z,18.98
2022-12-05T06:29:41.520Z,19.50
2022-12-05T06:32:09.264Z,19.90
2022-12-05T06:34:37.054Z,19.42
2022-12-05T06:37:04.606Z,20.25
2022-12-05T06:39:32.491Z,20.60
2022-12-05T06:42:00.052Z,19.20
2022-12-05T06:44:28.717Z,19.38
2022-12-05T06:46:56.711Z,20.00
2022-12-05T06:49:37.473Z,18.95
2022-12-05T06:52:05.538Z,16.63
2022-12-05T06:54:33.165Z,17.15
2022-12-05T06:57:00.776Z,17.27
2022-12-05T06:59:28.244Z,16.35
2022-12-05T07:01:55.902Z,16.00
2022-12-05T07:04:24.548Z,16.00
2022-12-05T07:06:54.081Z,15.30
2022-12-05T07:09:44.229Z,14.52
2022-12-05T07:12:13.954Z,14.38
2022-12-05T07:14:50.176Z,13.55
2022-12-05T07:17:20.645Z,16.08
2022-12-05T07:19:52.740Z,14.55
2022-12-05T07:22:22.340Z,14.75
2022-12-05T07:24:53.181Z,13.60
2022-12-05T07:27:26.790Z,13.73
2022-12-05T07:29:55.289Z,13.02
2022-12-05T07:32:22.876Z,13.20
2022-12-05T07:34:55.054Z,13.02
2022-12-05T07:37:23.955Z,13.23
2022-12-05T07:39:55.464Z,13.15
2022-12-05T07:42:23.209Z,12.65
2022-12-05T07:44:50.705Z,13.85
2022-12-05T07:47:18.256Z,14.88
2022-12-05T07:49:45.800Z,14.32
2022-12-05T07:52:13.287Z,15.23
2022-12-05T07:54:40.801Z,14.82
2022-12-05T07:57:08.241Z,15.02
2022-12-05T07:59:35.645Z,16.10
2022-12-05T08:02:03.257Z,16.23
2022-12-05T08:04:31.087Z,14.38
2022-12-05T08:06:58.585Z,15.13
2022-12-05T08:09:26.143Z,16.25
2022-12-05T08:11:56.165Z,16.38
2022-12-05T08:14:23.716Z,15.18
2022-12-05T08:16:51.424Z,14.82
2022-12-05T08:19:19.316Z,15.70
2022-12-05T08:21:47.026Z,15.55
2022-12-05T08:24:17.219Z,15.27
2022-12-05T08:26:44.726Z,14.35
2022-12-05T08:29:14.286Z,14.32
2022-12-05T08:31:49.041Z,14.90
2022-12-05T08:34:18.880Z,15.95
2022-12-05T08:36:46.736Z,15.63
2022-12-05T08:39:17.763Z,16.63
2022-12-05T08:41:46.911Z,15.23
2022-12-05T08:44:17.048Z,16.48
2022-12-05T08:46:47.624Z,14.45
2022-12-05T08:49:15.922Z,15.15
2022-12-05T08:51:44.161Z,16.20
2022-12-05T08:54:12.367Z,16.15
2022-12-05T08:59:07.758Z,16.02
2022-12-05T09:04:07.250Z,15.55
2022-12-05T09:06:36.039Z,15.05
2022-12-05T09:09:07.149Z,15.85
2022-12-05T09:11:37.670Z,15.43
2022-12-05T09:14:05.612Z,15.85
2022-12-05T09:16:40.604Z,14.77
2022-12-05T09:19:21.907Z,14.65
2022-12-05T09:22:00.805Z,15.30
2022-12-05T09:24:33.645Z,14.75
2022-12-05T09:27:08.721Z,15.20
2022-12-05T09:29:41.301Z,14.55
2022-12-05T09:32:09.930Z,14.70
2022-12-05T09:34:38.136Z,14.55
2022-12-05T09:39:55.701Z,14.27
2022-12-05T09:42:55.111Z,14.80
2022-12-05T09:45:46.280Z,15.02
2022-12-05T09:48:21.821Z,14.93
2022-12-05T09:51:03.975Z,13.98
2022-12-05T09:53:37.749Z,15.05
2022-12-05T09:56:22.726Z,14.13
2022-12-05T09:58:55.492Z,14.50
2022-12-05T10:01:41.998Z,13.90
2022-12-05T10:04:30.629Z,13.82
2022-12-05T10:07:34.633Z,13.00
2022-12-05T10:10:43.188Z,14.60
2022-12-05T10:13:26.095Z,13.98
2022-12-05T10:15:57.859Z,12.88
2022-12-05T10:18:44.157Z,12.73
2022-12-05T10:21:18.007Z,13.60
2022-12-05T10:23:59.593Z,12.88
2022-12-05T10:26:35.938Z,12.10
2022-12-05T10:29:19.814Z,12.95
2022-12-05T10:31:49.643Z,13.63
2022-12-05T10:34:42.127Z,12.65
2022-12-05T10:37:25.008Z,13.40
2022-12-05T10:39:57.650Z,12.98
2022-12-05T10:42:37.415Z,13.80
2022-12-05T10:45:24.496Z,13.05
2022-12-05T10:47:59.462Z,13.82
2022-12-05T10:50:51.541Z,13.63
2022-12-05T10:53:28.843Z,14.70
2022-12-05T10:56:28.907Z,14.05
2022-12-05T11:01:25.371Z,12.40
2022-12-05T11:03:59.129Z,13.23
2022-12-05T11:06:29.712Z,12.63
2022-12-05T11:09:05.581Z,12.35
2022-12-05T11:11:35.102Z,12.80
2022-12-05T11:14:05.167Z,12.30
2022-12-05T11:16:40.255Z,12.25
2022-12-05T11:19:22.751Z,12.07
2022-12-05T11:21:51.943Z,12.50
2022-12-05T11:24:31.520Z,12.55
2022-12-05T11:27:18.742Z,11.57
2022-12-05T11:29:56.731Z,11.25
2022-12-05T11:32:27.481Z,11.77
2022-12-05T11:35:13.204Z,11.05
2022-12-05T11:37:52.085Z,12.15
2022-12-05T11:40:52.886Z,12.73
2022-12-05T11:43:55.799Z,11.63
2022-12-05T11:46:46.098Z,12.40
2022-12-05T11:49:19.651Z,12.65
2022-12-05T11:52:42.534Z,13.00
2022-12-05T11:55:10.016Z,12.50
2022-12-05T12:00:24.796Z,11.15
2022-12-05T12:03:18.869Z,11.80
2022-12-05T12:06:09.038Z,13.18
2022-12-05T12:08:56.485Z,11.93
2022-12-05T12:11:51.767Z,11.68
2022-12-05T12:14:53.492Z,12.70
2022-12-05T12:18:05.075Z,12.30
2022-12-05T12:20:46.701Z,12.88
2022-12-05T12:23:44.401Z,12.15
2022-12-05T12:29:03.920Z,12.55
2022-12-05T12:31:43.746Z,12.57
2022-12-05T12:35:05.695Z,11.85
2022-12-05T12:37:55.295Z,11.68
2022-12-05T12:40:45.421Z,11.55
2022-12-05T12:43:53.120Z,12.35
2022-12-05T12:46:42.570Z,12.07
2022-12-05T12:49:31.141Z,12.52
2022-12-05T12:52:13.476Z,12.30
2022-12-05T12:55:05.497Z,12.38
2022-12-05T12:57:49.809Z,11.80
2022-12-05T13:01:03.062Z,11.65
2022-12-05T13:03:43.456Z,12.15
2022-12-05T13:06:39.335Z,12.05
2022-12-05T13:09:18.261Z,9.65
2022-12-05T13:11:48.971Z,10.57
2022-12-05T13:14:20.726Z,9.32
2022-12-05T13:16:50.981Z,9.75
2022-12-05T13:19:52.452Z,10.77
2022-12-05T13:22:25.930Z,10.13
2022-12-05T13:24:55.144Z,10.85
2022-12-05T13:27:28.076Z,11.07
2022-12-05T13:30:02.282Z,10.90
2022-12-05T13:32:37.026Z,12.38
2022-12-05T13:35:07.567Z,12.43
2022-12-05T13:37:54.544Z,11.32
2022-12-05T13:40:45.790Z,11.88
2022-12-05T13:43:17.392Z,12.23
2022-12-05T13:46:07.144Z,9.73
2022-12-05T13:48:39.976Z,9.50
2022-12-05T13:51:27.609Z,9.63
2022-12-05T13:54:25.514Z,6.82
2022-12-05T13:57:05.252Z,7.57
2022-12-05T14:00:00.668Z,7.25
2022-12-05T14:02:43.901Z,7.97
2022-12-05T14:05:35.809Z,7.47
2022-12-05T14:08:29.112Z,8.63
2022-12-05T14:10:56.610Z,7.65
2022-12-05T14:13:24.210Z,7.78
2022-12-05T14:15:54.591Z,7.65
2022-12-05T14:18:50.502Z,6.68
2022-12-05T14:21:24.730Z,7.63
2022-12-05T14:24:13.486Z,8.55
2022-12-05T14:27:07.406Z,6.35
2022-12-05T14:30:00.093Z,6.70
2022-12-05T14:32:44.132Z,6.18
2022-12-05T14:35:46.259Z,5.88
2022-12-05T14:38:31.596Z,6.28
2022-12-05T14:41:31.013Z,5.97
2022-12-05T14:44:01.588Z,6.65
2022-12-05T14:46:34.084Z,6.80
2022-12-05T14:49:37.976Z,6.45
2022-12-05T14:52:12.120Z,6.28
2022-12-05T14:54:43.550Z,6.65
2022-12-05T14:57:16.321Z,5.70
2022-12-05T14:59:51.360Z,6.45
2022-12-05T15:02:44.783Z,6.30
2022-12-05T15:05:24.663Z,6.35
2022-12-05T15:07:54.773Z,6.00
2022-12-05T15:10:35.493Z,5.68
2022-12-05T15:13:07.865Z,5.45
2022-12-05T15:15:47.689Z,5.75
2022-12-05T15:18:38.445Z,6.10
2022-12-05T15:21:26.647Z,5.32
2022-12-05T15:24:00.861Z,5.70
2022-12-05T15:26:48.508Z,4.72
2022-12-05T15:29:29.086Z,4.97
2022-12-05T15:32:06.006Z,4.68
2022-12-05T15:34:58.791Z,4.72
2022-12-05T15:37:51.689Z,4.45
2022-12-05T15:40:25.038Z,4.63
2022-12-05T15:42:55.630Z,5.15
2022-12-05T15:45:37.251Z,5.13
2022-12-05T15:48:08.067Z,4.85
2022-12-05T15:50:47.158Z,5.57
2022-12-05T15:53:36.738Z,5.05
2022-12-05T15:59:27.503Z,4.25
2022-12-05T16:02:03.690Z,4.90
2022-12-05T16:04:38.838Z,5.10
2022-12-05T16:07:11.942Z,8.38
2022-12-05T16:09:45.144Z,6.63
2022-12-05T16:12:23.346Z,12.77
2022-12-05T16:14:59.882Z,7.45
2022-12-05T16:17:30.928Z,12.02
2022-12-05T16:20:35.178Z,13.00
2022-12-05T16:23:26.667Z,12.43
2022-12-05T16:26:12.930Z,8.88
2022-12-05T16:28:40.637Z,5.22
2022-12-05T16:31:13.237Z,6.68
2022-12-05T16:33:43.598Z,8.02
2022-12-05T16:36:22.321Z,5.57
2022-12-05T16:38:49.985Z,5.22
2022-12-05T16:41:28.322Z,4.70
2022-12-05T16:43:57.404Z,4.82
2022-12-05T16:46:38.698Z,4.30
2022-12-05T16:49:25.451Z,4.20
2022-12-05T16:52:00.573Z,4.20
2022-12-05T16:54:40.438Z,4.45
2022-12-05T16:57:18.075Z,4.05
2022-12-05T16:59:49.410Z,4.40
2022-12-05T17:03:18.486Z,4.35
2022-12-05T17:06:32.221Z,4.43
2022-12-05T17:09:10.181Z,4.07
2022-12-05T17:11:52.734Z,3.95
2022-12-05T17:14:23.613Z,3.75
2022-12-05T17:16:51.139Z,4.10
2022-12-05T17:19:18.974Z,4.32
2022-12-05T17:21:46.678Z,4.15
2022-12-05T17:24:18.913Z,3.88
2022-12-05T17:26:48.889Z,4.05
2022-12-05T17:29:20.122Z,4.20
2022-12-05T17:31:47.729Z,3.97
2022-12-05T17:34:20.060Z,3.90
2022-12-05T17:36:47.597Z,4.40
2022-12-05T17:39:14.996Z,4.40
2022-12-05T17:41:42.446Z,4.78
2022-12-05T17:44:14.421Z,4.47
2022-12-05T17:46:43.180Z,4.57
2022-12-05T17:49:18.651Z,4.18
2022-12-05T17:52:20.093Z,4.88
2022-12-05T17:54:43.125Z,6.05
2022-12-05T17:57:10.820Z,7.88
2022-12-05T18:02:25.984Z,8.30
2022-12-05T18:04:53.624Z,7.47
2022-12-05T18:07:21.063Z,12.00
2022-12-05T18:09:49.600Z,10.13
2022-12-05T18:12:22.762Z,9.85
2022-12-05T18:14:50.962Z,7.40
2022-12-05T18:19:46.102Z,8.27
2022-12-05T18:22:15.828Z,8.27
2022-12-05T18:24:46.240Z,7.10
2022-12-05T18:27:13.761Z,6.85
2022-12-05T18:29:41.296Z,5.93
2022-12-05T18:32:08.949Z,7.03
2022-12-05T18:34:36.609Z,6.10
2022-12-05T18:37:04.125Z,5.30
2022-12-05T18:39:33.872Z,6.07
2022-12-05T18:42:01.612Z,5.70
2022-12-05T18:44:30.665Z,5.72
2022-12-05T18:47:00.907Z,5.93
2022-12-05T18:49:28.409Z,6.00
2022-12-05T18:51:55.992Z,4.88
2022-12-05T18:54:23.656Z,5.35
2022-12-05T18:56:52.779Z,4.82
2022-12-05T18:59:22.257Z,4.95
2022-12-05T19:01:50.687Z,4.78
2022-12-05T19:04:21.417Z,4.90
2022-12-05T19:06:54.450Z,4.57
2022-12-05T19:09:25.351Z,4.20
2022-12-05T19:11:55.055Z,4.95
2022-12-05T19:14:25.920Z,4.38
2022-12-05T19:16:59.879Z,4.60
2022-12-05T19:19:28.649Z,5.20
2022-12-05T19:24:26.728Z,5.03
2022-12-05T19:26:54.251Z,4.43
2022-12-05T19:29:21.785Z,4.60
2022-12-05T19:31:49.700Z,4.53
2022-12-05T19:34:17.354Z,4.47
2022-12-05T19:36:46.336Z,4.38
2022-12-05T19:39:23.568Z,4.35
2022-12-05T19:41:51.719Z,5.00
2022-12-05T19:44:19.453Z,4.43
2022-12-05T19:46:48.882Z,4.78
2022-12-05T19:49:23.663Z,4.75
2022-12-05T19:51:52.552Z,5.05
2022-12-05T19:54:22.012Z,4.93
2022-12-05T19:56:51.462Z,4.53
2022-12-05T19:59:22.481Z,4.30
2022-12-05T20:01:50.113Z,4.50
2022-12-05T20:04:17.771Z,4.15
2022-12-05T20:06:49.401Z,4.35
2022-12-05T20:09:20.074Z,4.25
2022-12-05T20:11:54.620Z,4.00
2022-12-05T20:14:24.555Z,4.13
2022-12-05T20:16:52.730Z,4.32
2022-12-05T20:19:20.775Z,4.28
2022-12-05T20:21:50.645Z,4.50
2022-12-05T20:24:18.096Z,4.70
2022-12-05T20:26:47.999Z,4.65
2022-12-05T20:29:15.699Z,4.60
2022-12-05T20:31:43.937Z,6.15
2022-12-05T20:36:40.977Z,4.43
2022-12-05T20:39:12.920Z,5.20
2022-12-05T20:41:40.548Z,8.70
2022-12-05T20:44:08.545Z,7.03
2022-12-05T20:49:04.628Z,4.28
2022-12-05T20:51:34.554Z,5.85
2022-12-05T20:54:03.713Z,5.15
2022-12-05T20:56:32.605Z,4.68
2022-12-05T20:59:02.550Z,6.78
2022-12-05T21:01:31.831Z,6.57
2022-12-05T21:04:00.211Z,5.50
2022-12-05T21:06:33.709Z,8.73
2022-12-05T21:09:02.797Z,6.75
2022-12-05T21:11:30.630Z,10.57
2022-12-05T21:14:00.311Z,5.53
2022-12-05T21:16:28.257Z,4.85
2022-12-05T21:18:56.336Z,6.28
2022-12-05T21:21:26.202Z,6.18
2022-12-05T21:23:56.920Z,7.00
2022-12-05T21:26:27.230Z,6.13
2022-12-05T21:28:55.581Z,6.13
2022-12-05T21:31:28.764Z,7.05
2022-12-05T21:34:04.136Z,6.32
2022-12-05T21:36:33.925Z,7.85
2022-12-05T21:39:01.454Z,6.10
2022-12-05T21:41:28.968Z,5.68
2022-12-05T21:43:56.484Z,5.65
2022-12-05T21:46:25.439Z,5.13
2022-12-05T21:48:53.558Z,6.45
2022-12-05T21:51:21.778Z,5.70
2022-12-05T21:56:19.313Z,5.07
2022-12-05T21:58:47.472Z,5.15
2022-12-05T22:01:24.105Z,4.95
2022-12-05T22:03:59.193Z,5.00
2022-12-05T22:06:27.376Z,5.20
2022-12-05T22:11:24.661Z,5.68
2022-12-05T22:16:20.445Z,5.72
2022-12-05T22:21:21.162Z,4.70
2022-12-05T22:23:49.664Z,4.50
2022-12-05T22:26:21.482Z,4.88
2022-12-05T22:28:53.760Z,5.15
2022-12-05T22:31:22.734Z,5.20
2022-12-05T22:33:50.902Z,5.20
2022-12-05T22:38:47.991Z,5.60
2022-12-05T22:41:23.869Z,5.75
2022-12-05T22:43:57.671Z,6.45
2022-12-05T22:46:27.215Z,6.20
2022-12-05T22:48:55.033Z,6.35
2022-12-05T22:51:23.470Z,7.22
2022-12-05T22:53:58.494Z,7.30
2022-12-05T22:56:28.309Z,5.57
2022-12-05T22:58:57.606Z,5.95
2022-12-05T23:01:29.527Z,5.18
2022-12-05T23:04:00.304Z,5.25
2022-12-05T23:06:28.986Z,5.22
2022-12-05T23:08:56.824Z,4.65
2022-12-05T23:11:25.381Z,4.40
2022-12-05T23:14:01.341Z,5.25
2022-12-05T23:16:32.071Z,4.95
2022-12-05T23:19:02.596Z,4.82
2022-12-05T23:21:35.827Z,5.07
2022-12-05T23:24:09.248Z,5.10
2022-12-05T23:26:42.708Z,5.20
2022-12-05T23:29:12.403Z,4.63
2022-12-05T23:31:41.109Z,4.80
2022-12-05T23:34:08.706Z,5.22
2022-12-05T23:39:05.656Z,4.95
2022-12-05T23:41:33.144Z,4.78
2022-12-05T23:44:00.737Z,4.82
2022-12-05T23:46:28.671Z,4.35
2022-12-05T23:48:56.400Z,4.35
2022-12-05T23:51:27.307Z,4.40
2022-12-05T23:54:00.079Z,4.78
2022-12-05T23:56:31.140Z,4.40
2022-12-05T23:58:58.682Z,4.97
